Time;durP1;ratioP1;P1;durP2;ratioP2;P2;SDS_P1;SDS_P2;PMS_P1;PMS_P2;Temp;Humidity;BMP_temperature;BMP_pressure;BME280_temperature;BME280_humidity;BME280_pressure;Samples;Min_cycle;Max_cycle;Signal;HPM_P1;HPM_P2
2023/07/25 00:01:06;;;;;;;5.20;2.20;;;15.00;99.90;;;;;;5046404;28;20480;-42
2023/07/25 00:03:53;;;;;;;4.68;2.50;;;15.00;99.90;;;;;;5046362;28;20587;-42
2023/07/25 00:06:17;;;;;;;4.88;2.25;;;14.90;99.90;;;;;;5047127;28;20356;-41
2023/07/25 00:08:43;;;;;;;3.78;2.10;;;14.90;99.90;;;;;;5045963;28;20703;-41
2023/07/25 00:11:13;;;;;;;6.20;2.10;;;14.90;99.90;;;;;;5046600;28;20028;-41
2023/07/25 00:13:39;;;;;;;4.35;1.90;;;14.90;99.90;;;;;;5047494;28;20121;-41
2023/07/25 00:16:04;;;;;;;4.32;2.33;;;14.90;99.90;;;;;;5046529;28;20115;-41
2023/07/25 00:18:30;;;;;;;4.38;2.13;;;14.90;99.90;;;;;;5047118;28;20522;-40
2023/07/25 00:20:55;;;;;;;5.18;2.00;;;14.90;99.90;;;;;;5046890;28;20119;-40
2023/07/25 00:23:21;;;;;;;6.25;2.25;;;14.90;99.90;;;;;;5046551;28;20020;-42
2023/07/25 00:25:47;;;;;;;5.75;2.20;;;14.80;99.90;;;;;;5046657;28;20083;-42
2023/07/25 00:28:12;;;;;;;2.90;2.17;;;14.80;99.90;;;;;;5046179;28;20425;-41
2023/07/25 00:30:39;;;;;;;7.35;2.15;;;14.80;99.90;;;;;;5046756;28;20040;-42
2023/07/25 00:33:08;;;;;;;5.70;2.50;;;14.70;99.90;;;;;;5046619;28;20021;-42
2023/07/25 00:35:33;;;;;;;2.80;1.95;;;14.70;99.90;;;;;;5046272;28;20476;-42
2023/07/25 00:37:59;;;;;;;4.22;2.00;;;14.70;99.90;;;;;;5046621;28;20112;-42
2023/07/25 00:40:24;;;;;;;4.10;2.00;;;14.60;99.90;;;;;;5046603;28;20638;-42
2023/07/25 00:42:54;;;;;;;4.80;2.58;;;14.60;99.90;;;;;;5045779;28;20024;-42
2023/07/25 00:45:20;;;;;;;4.38;2.05;;;14.50;99.90;;;;;;5043432;28;20043;-42
2023/07/25 00:47:46;;;;;;;5.25;2.58;;;14.50;99.90;;;;;;5046387;28;20377;-42
2023/07/25 00:50:12;;;;;;;3.90;2.33;;;14.50;99.90;;;;;;5045439;28;20469;-42
2023/07/25 00:52:37;;;;;;;6.47;2.40;;;14.40;99.90;;;;;;5046506;28;20017;-43
2023/07/25 00:55:04;;;;;;;4.32;2.17;;;14.40;99.90;;;;;;5046029;28;20108;-42
2023/07/25 00:57:30;;;;;;;7.35;2.60;;;14.50;99.90;;;;;;5045917;28;20070;-41
2023/07/25 00:59:56;;;;;;;4.63;2.25;;;14.50;99.90;;;;;;5046006;28;20044;-42
2023/07/25 01:02:22;;;;;;;6.43;2.28;;;14.40;99.90;;;;;;5046268;28;20025;-42
2023/07/25 01:04:48;;;;;;;5.50;2.42;;;14.40;99.90;;;;;;5044624;28;20033;-41
2023/07/25 01:07:20;;;;;;;5.63;2.17;;;14.40;99.90;;;;;;5045954;28;20029;-42
2023/07/25 01:09:47;;;;;;;6.47;2.60;;;14.40;99.90;;;;;;5045473;28;20049;-42
2023/07/25 01:12:13;;;;;;;6.95;2.95;;;14.40;99.90;;;;;;5045247;28;20063;-42
2023/07/25 01:14:40;;;;;;;5.40;2.70;;;14.40;99.90;;;;;;5045577;28;20052;-42
2023/07/25 01:17:18;;;;;;;5.10;2.35;;;14.40;99.90;;;;;;5044362;28;20598;-43
2023/07/25 01:19:46;;;;;;;3.92;2.10;;;14.40;99.90;;;;;;5045331;28;20037;-41
2023/07/25 01:22:12;;;;;;;3.45;1.77;;;14.40;99.90;;;;;;5046357;28;20017;-41
2023/07/25 01:24:46;;;;;;;8.52;2.60;;;14.40;99.90;;;;;;5044224;28;20035;-42
2023/07/25 01:27:13;;;;;;;4.15;1.92;;;14.40;99.90;;;;;;5034555;28;20450;-41
2023/07/25 01:29:38;;;;;;;4.00;2.20;;;14.40;99.90;;;;;;5044799;28;20045;-41
2023/07/25 01:32:07;;;;;;;4.55;2.35;;;14.40;99.90;;;;;;5045273;28;20056;-42
2023/07/25 01:34:33;;;;;;;4.20;2.20;;;14.40;99.90;;;;;;5045631;28;20087;-41
2023/07/25 01:36:59;;;;;;;4.78;2.30;;;14.40;99.90;;;;;;5045424;28;20448;-42
2023/07/25 01:39:24;;;;;;;5.07;2.20;;;14.30;99.90;;;;;;5045609;28;20044;-42
2023/07/25 01:41:50;;;;;;;3.40;2.10;;;14.40;99.90;;;;;;5045115;28;20131;-42
2023/07/25 01:44:15;;;;;;;5.43;2.33;;;14.30;99.90;;;;;;5045265;28;20103;-42
2023/07/25 01:46:41;;;;;;;4.88;2.53;;;14.30;99.90;;;;;;5044223;28;20025;-42
2023/07/25 01:49:10;;;;;;;5.22;2.42;;;14.20;99.90;;;;;;5045464;28;20495;-41
2023/07/25 01:51:39;;;;;;;4.38;2.40;;;14.30;99.90;;;;;;5045494;28;20016;-42
2023/07/25 01:54:05;;;;;;;3.20;2.13;;;14.30;99.90;;;;;;5044610;28;20033;-41
2023/07/25 01:56:31;;;;;;;5.30;2.30;;;14.20;99.90;;;;;;5045013;28;20133;-42
2023/07/25 01:58:56;;;;;;;2.92;2.03;;;14.20;99.90;;;;;;5045279;28;20254;-42
2023/07/25 02:01:22;;;;;;;4.13;2.30;;;14.20;99.90;;;;;;5043874;28;20021;-43
2023/07/25 02:03:48;;;;;;;5.57;2.08;;;14.20;99.90;;;;;;5045162;28;20029;-41
2023/07/25 02:06:13;;;;;;;4.30;2.78;;;14.10;99.90;;;;;;5044898;28;20102;-42
2023/07/25 02:08:39;;;;;;;4.78;2.53;;;14.10;99.90;;;;;;5044563;28;20041;-41
2023/07/25 02:11:05;;;;;;;5.70;2.72;;;14.10;99.90;;;;;;5045121;28;20021;-41
2023/07/25 02:13:30;;;;;;;5.43;2.83;;;14.10;99.90;;;;;;5044789;28;20147;-42
2023/07/25 02:15:56;;;;;;;5.07;3.17;;;14.00;99.90;;;;;;5045072;28;20021;-41
2023/07/25 02:18:21;;;;;;;8.07;3.70;;;14.00;99.90;;;;;;5044810;28;20056;-42
2023/07/25 02:20:51;;;;;;;4.80;2.63;;;14.00;99.90;;;;;;5044358;28;20036;-42
2023/07/25 02:23:16;;;;;;;4.30;2.47;;;14.00;99.90;;;;;;5044928;28;20100;-42
2023/07/25 02:25:42;;;;;;;4.75;2.50;;;14.00;99.90;;;;;;5045278;28;20113;-42
2023/07/25 02:28:11;;;;;;;5.40;2.58;;;14.00;99.90;;;;;;5044006;28;20025;-42
2023/07/25 02:30:36;;;;;;;9.57;3.00;;;13.90;99.90;;;;;;5044802;28;20099;-42
2023/07/25 02:33:02;;;;;;;6.60;2.40;;;14.00;99.90;;;;;;5045151;28;20412;-42
2023/07/25 02:35:27;;;;;;;3.97;2.30;;;13.90;99.90;;;;;;5046589;28;20120;-42
2023/07/25 02:37:53;;;;;;;5.30;2.35;;;13.90;99.90;;;;;;5048537;28;20025;-42
2023/07/25 02:40:18;;;;;;;4.28;2.72;;;14.00;99.90;;;;;;5049076;28;20041;-42
2023/07/25 02:42:44;;;;;;;5.45;2.80;;;13.90;99.90;;;;;;5047542;28;20029;-42
2023/07/25 02:45:10;;;;;;;4.25;2.70;;;13.90;99.90;;;;;;5048682;28;20082;-42
2023/07/25 02:47:35;;;;;;;3.03;1.92;;;13.90;99.90;;;;;;5048593;28;20036;-41
2023/07/25 02:50:01;;;;;;;5.90;2.88;;;13.90;99.90;;;;;;5048433;28;20025;-41
2023/07/25 02:52:26;;;;;;;3.92;2.20;;;13.90;99.90;;;;;;5049212;28;20579;-42
2023/07/25 02:54:52;;;;;;;2.78;2.40;;;13.90;99.90;;;;;;5048761;28;20029;-42
2023/07/25 02:57:18;;;;;;;4.35;2.60;;;13.80;99.90;;;;;;5047694;28;20652;-42
2023/07/25 02:59:43;;;;;;;2.28;2.05;;;13.80;99.90;;;;;;5048640;28;20033;-42
2023/07/25 03:02:10;;;;;;;3.33;2.10;;;13.80;99.90;;;;;;5048627;28;20025;-42
2023/07/25 03:04:36;;;;;;;4.97;2.20;;;13.80;99.90;;;;;;5047298;28;20111;-42
2023/07/25 03:07:01;;;;;;;4.00;2.25;;;13.80;99.90;;;;;;5048466;28;20167;-42
2023/07/25 03:09:27;;;;;;;3.35;2.08;;;13.80;99.90;;;;;;5047888;28;20138;-42
2023/07/25 03:11:52;;;;;;;3.10;2.08;;;13.80;99.90;;;;;;5047310;28;20028;-43
2023/07/25 03:14:19;;;;;;;4.57;2.30;;;13.80;99.90;;;;;;5047765;28;20054;-42
2023/07/25 03:16:45;;;;;;;4.88;2.10;;;13.80;99.90;;;;;;5047616;28;20212;-42
2023/07/25 03:19:10;;;;;;;4.45;2.13;;;13.80;99.90;;;;;;5047356;28;20041;-42
2023/07/25 03:21:36;;;;;;;3.45;2.05;;;13.90;99.90;;;;;;5047893;28;20053;-42
2023/07/25 03:24:01;;;;;;;3.40;2.30;;;13.90;99.90;;;;;;5047278;28;20393;-42
2023/07/25 03:26:27;;;;;;;3.78;2.20;;;13.90;99.90;;;;;;5048837;28;20040;-42
2023/07/25 03:28:53;;;;;;;3.80;2.15;;;13.90;99.90;;;;;;5048184;28;20020;-41
2023/07/25 03:31:18;;;;;;;5.10;3.05;;;13.90;99.90;;;;;;5046988;28;20033;-42
2023/07/25 03:33:44;;;;;;;2.80;1.85;;;13.90;99.90;;;;;;5048125;28;20034;-42
2023/07/25 03:36:09;;;;;;;4.68;2.35;;;13.90;99.90;;;;;;5048084;28;20146;-42
2023/07/25 03:38:35;;;;;;;4.63;2.08;;;13.80;99.90;;;;;;5047337;28;20381;-41
2023/07/25 03:41:01;;;;;;;4.15;2.30;;;13.80;99.90;;;;;;5047561;28;20028;-42
2023/07/25 03:43:26;;;;;;;4.90;2.42;;;13.90;99.90;;;;;;5047909;28;20052;-42
2023/07/25 03:45:52;;;;;;;3.17;2.33;;;13.80;99.90;;;;;;5046238;28;20552;-42
2023/07/25 03:48:17;;;;;;;5.22;2.47;;;13.80;99.90;;;;;;5046873;28;20487;-42
2023/07/25 03:50:43;;;;;;;5.60;2.60;;;13.90;99.90;;;;;;5047464;28;20119;-42
2023/07/25 03:53:09;;;;;;;2.83;2.30;;;13.90;99.90;;;;;;5046526;28;20025;-42
2023/07/25 03:55:34;;;;;;;3.90;2.20;;;13.90;99.90;;;;;;5047071;28;20029;-42
2023/07/25 03:58:00;;;;;;;7.15;2.70;;;13.90;99.90;;;;;;5047196;28;20469;-42
2023/07/25 04:00:25;;;;;;;4.68;2.42;;;13.90;99.90;;;;;;5046536;28;20484;-42
2023/07/25 04:02:51;;;;;;;2.40;2.10;;;14.00;99.90;;;;;;5047196;28;20381;-42
2023/07/25 04:05:16;;;;;;;2.80;2.17;;;13.90;99.90;;;;;;5046809;28;20086;-42
2023/07/25 04:07:42;;;;;;;4.05;2.70;;;13.90;99.90;;;;;;5046772;28;20360;-42
2023/07/25 04:10:08;;;;;;;7.32;3.30;;;13.80;99.90;;;;;;5046514;28;20041;-42
2023/07/25 04:12:33;;;;;;;5.70;3.20;;;13.80;99.90;;;;;;5047219;28;20028;-42
2023/07/25 04:14:59;;;;;;;5.85;2.78;;;13.80;99.90;;;;;;5046057;28;20063;-43
2023/07/25 04:17:24;;;;;;;8.18;3.58;;;13.80;99.90;;;;;;5047198;28;20021;-42
2023/07/25 04:19:50;;;;;;;6.60;3.00;;;13.70;99.90;;;;;;5046549;28;20865;-41
2023/07/25 04:22:16;;;;;;;3.20;2.30;;;13.70;99.90;;;;;;5045763;28;20021;-42
2023/07/25 04:24:41;;;;;;;6.05;2.80;;;13.80;99.90;;;;;;5046987;28;20033;-41
2023/07/25 04:27:07;;;;;;;4.25;2.90;;;13.80;99.90;;;;;;5045701;28;20028;-42
2023/07/25 04:29:32;;;;;;;5.32;2.60;;;13.90;99.90;;;;;;5046849;28;20045;-41
2023/07/25 04:31:58;;;;;;;5.60;2.85;;;13.90;99.90;;;;;;5046231;28;20021;-42
2023/07/25 04:34:23;;;;;;;4.72;3.10;;;13.90;99.90;;;;;;5046093;28;20094;-42
2023/07/25 04:36:49;;;;;;;6.35;2.60;;;13.90;99.90;;;;;;5045888;28;20021;-42
2023/07/25 04:39:14;;;;;;;5.03;2.50;;;14.00;99.90;;;;;;5046649;28;20033;-42
2023/07/25 04:41:40;;;;;;;5.78;2.67;;;14.00;99.90;;;;;;5045818;28;20042;-42
2023/07/25 04:44:06;;;;;;;3.65;2.55;;;14.00;99.90;;;;;;5045981;28;20830;-42
2023/07/25 04:46:32;;;;;;;4.68;2.72;;;14.00;99.90;;;;;;5046781;28;20021;-41
2023/07/25 04:48:58;;;;;;;3.55;2.55;;;14.00;99.90;;;;;;5046367;28;20098;-41
2023/07/25 04:51:26;;;;;;;3.15;2.35;;;14.00;99.90;;;;;;5046502;28;20032;-41
2023/07/25 04:53:51;;;;;;;2.38;1.90;;;14.00;99.90;;;;;;5046232;28;20035;-42
2023/07/25 04:56:20;;;;;;;3.58;1.67;;;14.10;99.90;;;;;;5045686;28;20388;-41
2023/07/25 04:58:45;;;;;;;3.60;2.05;;;14.10;99.90;;;;;;5045675;28;20075;-42
2023/07/25 05:01:12;;;;;;;3.70;1.98;;;14.10;99.90;;;;;;5046464;28;20489;-41
2023/07/25 05:03:38;;;;;;;4.07;1.88;;;14.20;99.90;;;;;;5044971;28;20381;-42
2023/07/25 05:06:03;;;;;;;2.72;1.58;;;14.30;99.90;;;;;;5045862;28;20032;-41
2023/07/25 05:08:31;;;;;;;2.83;1.85;;;14.40;99.90;;;;;;5046368;28;20028;-41
2023/07/25 05:10:57;;;;;;;4.38;1.90;;;14.40;99.90;;;;;;5026282;28;20034;-41
2023/07/25 05:13:22;;;;;;;2.83;1.80;;;14.40;99.90;;;;;;5040266;28;20094;-42
2023/07/25 05:15:49;;;;;;;3.28;1.70;;;14.50;99.90;;;;;;5046352;28;20025;-43
2023/07/25 05:18:14;;;;;;;2.97;1.65;;;14.50;99.90;;;;;;5044558;28;20025;-42
2023/07/25 05:20:40;;;;;;;4.78;1.98;;;14.50;99.90;;;;;;5045349;28;20040;-42
2023/07/25 05:23:12;;;;;;;2.88;1.90;;;14.70;99.90;;;;;;5045785;28;20071;-42
2023/07/25 05:25:38;;;;;;;2.78;1.70;;;14.80;99.90;;;;;;5046005;28;20384;-42
2023/07/25 05:28:04;;;;;;;5.82;1.92;;;14.90;99.90;;;;;;5045627;28;20017;-42
2023/07/25 05:30:30;;;;;;;4.57;2.33;;;15.00;99.90;;;;;;5045619;28;20567;-42
2023/07/25 05:32:55;;;;;;;7.25;2.63;;;15.00;99.90;;;;;;5045974;28;20810;-42
2023/07/25 05:35:21;;;;;;;2.88;1.70;;;15.10;99.90;;;;;;5045632;28;20023;-42
2023/07/25 05:37:47;;;;;;;5.97;2.80;;;15.10;99.90;;;;;;5044970;28;20038;-42
2023/07/25 05:40:12;;;;;;;5.35;2.88;;;15.10;99.90;;;;;;5045590;28;20035;-42
2023/07/25 05:42:38;;;;;;;4.75;1.98;;;15.00;99.90;;;;;;5045512;28;20025;-42
2023/07/25 05:45:06;;;;;;;7.55;3.40;;;14.90;99.90;;;;;;5044243;28;20064;-42
2023/07/25 05:47:32;;;;;;;5.28;2.58;;;15.00;99.90;;;;;;5045898;28;20067;-43
2023/07/25 05:49:58;;;;;;;4.90;2.80;;;15.00;99.90;;;;;;5044952;28;20033;-42
2023/07/25 05:52:23;;;;;;;7.53;3.15;;;15.00;99.90;;;;;;5045292;28;20097;-41
2023/07/25 05:54:49;;;;;;;4.22;2.75;;;15.00;99.90;;;;;;5045252;28;20040;-42
2023/07/25 05:57:15;;;;;;;4.40;2.40;;;15.00;99.90;;;;;;5045005;28;20028;-42
2023/07/25 05:59:43;;;;;;;3.58;2.30;;;15.00;99.90;;;;;;5044781;28;20057;-41
2023/07/25 06:02:10;;;;;;;4.32;2.67;;;15.10;99.90;;;;;;5044924;28;20017;-41
2023/07/25 06:04:35;;;;;;;5.55;2.28;;;15.10;99.90;;;;;;5045075;28;20063;-42
2023/07/25 06:07:01;;;;;;;3.85;2.10;;;15.20;99.90;;;;;;5044920;28;20575;-41
2023/07/25 06:09:26;;;;;;;6.68;2.47;;;15.20;99.90;;;;;;5044512;28;20049;-42
2023/07/25 06:11:53;;;;;;;3.50;2.55;;;15.30;99.90;;;;;;5044891;28;20025;-41
2023/07/25 06:14:18;;;;;;;5.18;2.28;;;15.30;99.90;;;;;;5044586;28;20021;-42
2023/07/25 06:16:44;;;;;;;3.58;2.63;;;15.30;99.90;;;;;;5045163;28;20545;-42
2023/07/25 06:19:10;;;;;;;3.40;2.22;;;15.20;99.90;;;;;;5044943;28;20040;-42
2023/07/25 06:21:36;;;;;;;3.55;2.20;;;15.20;99.90;;;;;;5044096;28;20543;-42
2023/07/25 06:24:01;;;;;;;3.40;2.33;;;15.10;99.90;;;;;;5044861;28;20087;-42
2023/07/25 06:26:32;;;;;;;3.60;2.08;;;15.10;99.90;;;;;;5044889;28;20444;-42
2023/07/25 06:28:58;;;;;;;3.38;2.00;;;15.10;99.90;;;;;;5045010;28;20040;-42
2023/07/25 06:31:23;;;;;;;2.20;1.88;;;15.20;99.90;;;;;;5045278;28;20028;-42
2023/07/25 06:33:49;;;;;;;2.95;1.95;;;15.20;99.90;;;;;;5043895;28;20323;-42
2023/07/25 06:36:14;;;;;;;4.72;2.22;;;15.20;99.90;;;;;;5044878;28;20116;-42
2023/07/25 06:38:40;;;;;;;4.70;2.55;;;15.30;99.90;;;;;;5045283;28;20071;-41
2023/07/25 06:41:05;;;;;;;3.70;2.33;;;15.30;99.90;;;;;;5044111;28;20037;-42
2023/07/25 06:43:31;;;;;;;6.28;2.40;;;15.30;99.90;;;;;;5044802;28;20070;-40
2023/07/25 06:45:57;;;;;;;4.22;1.90;;;15.40;99.90;;;;;;5045076;28;20037;-41
2023/07/25 06:48:22;;;;;;;3.40;2.10;;;15.50;99.90;;;;;;5044567;28;20596;-42
2023/07/25 06:50:48;;;;;;;4.90;2.10;;;15.60;99.90;;;;;;5044818;28;20028;-42
2023/07/25 06:53:13;;;;;;;4.90;2.10;;;15.70;99.90;;;;;;5044950;28;20021;-41
2023/07/25 06:55:39;;;;;;;7.22;2.20;;;15.80;99.90;;;;;;5044065;28;20111;-41
2023/07/25 06:58:05;;;;;;;4.85;2.15;;;15.80;99.90;;;;;;5044266;28;20025;-41
2023/07/25 07:00:30;;;;;;;3.63;1.83;;;15.90;99.90;;;;;;5044902;28;20074;-42
2023/07/25 07:02:56;;;;;;;3.10;2.00;;;15.90;99.90;;;;;;5043804;28;20021;-41
2023/07/25 07:05:22;;;;;;;5.07;2.13;;;15.90;99.90;;;;;;5045130;28;20025;-42
2023/07/25 07:07:48;;;;;;;4.80;1.80;;;15.90;99.90;;;;;;5044334;28;20021;-41
2023/07/25 07:10:14;;;;;;;4.18;2.38;;;15.90;99.90;;;;;;5043175;28;20052;-42
2023/07/25 07:12:45;;;;;;;5.53;2.33;;;15.90;99.90;;;;;;5044550;28;20534;-41
2023/07/25 07:15:15;;;;;;;5.00;1.80;;;15.90;99.90;;;;;;5045161;28;20047;-43
2023/07/25 07:17:41;;;;;;;4.07;1.60;;;15.90;99.90;;;;;;5043532;28;20390;-42
2023/07/25 07:20:09;;;;;;;2.92;1.50;;;15.90;99.90;;;;;;5043810;28;20444;-43
2023/07/25 07:22:34;;;;;;;2.88;1.40;;;16.00;99.90;;;;;;5046043;28;20025;-42
2023/07/25 07:25:00;;;;;;;3.60;1.40;;;16.10;99.90;;;;;;5047345;28;20036;-43
2023/07/25 07:27:25;;;;;;;4.78;1.40;;;16.10;99.90;;;;;;5048120;28;20029;-42
2023/07/25 07:29:54;;;;;;;4.22;1.50;;;16.20;99.90;;;;;;5047556;28;20028;-42
2023/07/25 07:32:20;;;;;;;3.28;1.50;;;16.30;99.90;;;;;;5047728;28;20071;-41
2023/07/25 07:34:48;;;;;;;3.08;1.08;;;16.40;99.90;;;;;;5047447;28;20071;-41
2023/07/25 07:37:13;;;;;;;2.03;1.10;;;16.40;99.90;;;;;;5047270;28;20119;-41
2023/07/25 07:39:41;;;;;;;4.28;1.40;;;16.50;99.90;;;;;;5047523;28;20036;-41
2023/07/25 07:42:07;;;;;;;1.95;1.02;;;16.50;99.90;;;;;;5047407;28;20025;-41
2023/07/25 07:44:32;;;;;;;1.48;0.93;;;16.50;99.90;;;;;;5047070;28;20029;-42
2023/07/25 07:46:58;;;;;;;5.32;1.50;;;16.60;99.90;;;;;;5047209;28;20386;-41
2023/07/25 07:49:23;;;;;;;3.13;1.02;;;16.60;99.90;;;;;;5047666;28;20668;-41
2023/07/25 07:51:49;;;;;;;3.08;1.17;;;16.60;99.90;;;;;;5046878;28;20060;-41
2023/07/25 07:54:14;;;;;;;2.65;1.58;;;16.70;99.90;;;;;;5047352;28;20098;-41
2023/07/25 07:56:40;;;;;;;2.90;0.93;;;16.80;99.90;;;;;;5047754;28;20029;-42
2023/07/25 07:59:09;;;;;;;1.85;1.10;;;16.80;99.90;;;;;;5046048;28;20036;-42
2023/07/25 08:01:35;;;;;;;2.13;0.98;;;16.90;99.90;;;;;;5047870;28;20061;-42
2023/07/25 08:04:00;;;;;;;3.50;0.98;;;17.00;99.90;;;;;;5047505;28;20059;-42
2023/07/25 08:06:32;;;;;;;2.55;1.00;;;17.20;99.90;;;;;;5047106;28;20025;-42
2023/07/25 08:08:57;;;;;;;3.05;0.80;;;17.30;99.90;;;;;;5047796;28;20036;-43
2023/07/25 08:11:35;;;;;;;4.03;0.70;;;17.40;99.90;;;;;;5047490;28;20341;-42
2023/07/25 08:14:01;;;;;;;2.33;0.80;;;17.50;99.90;;;;;;5046642;28;20052;-42
2023/07/25 08:16:26;;;;;;;2.70;1.10;;;17.60;99.90;;;;;;5047603;28;20425;-43
2023/07/25 08:18:52;;;;;;;1.77;0.88;;;17.70;99.90;;;;;;5046468;28;20035;-42
2023/07/25 08:21:17;;;;;;;3.15;1.00;;;17.70;99.90;;;;;;5046087;28;20035;-43
2023/07/25 08:23:43;;;;;;;1.27;0.75;;;17.70;99.90;;;;;;5046550;28;20029;-43
2023/07/25 08:26:09;;;;;;;1.33;0.90;;;17.90;99.90;;;;;;5046709;28;20401;-42
2023/07/25 08:28:34;;;;;;;5.53;1.20;;;17.90;99.90;;;;;;5046820;28;20108;-41
2023/07/25 08:31:01;;;;;;;3.15;1.00;;;17.90;99.90;;;;;;5046418;28;20428;-42
2023/07/25 08:33:28;;;;;;;2.05;0.98;;;17.90;99.90;;;;;;5045966;28;20487;-42
2023/07/25 08:35:54;;;;;;;1.90;0.80;;;18.00;99.90;;;;;;5045230;28;20044;-41
2023/07/25 08:38:23;;;;;;;2.47;1.10;;;18.10;99.90;;;;;;5046257;28;20029;-41
2023/07/25 08:41:10;;;;;;;2.85;1.08;;;18.20;99.90;;;;;;5045897;28;20033;-41
2023/07/25 08:43:38;;;;;;;3.35;1.20;;;18.40;99.90;;;;;;5046684;28;20029;-41
2023/07/25 08:46:08;;;;;;;2.63;1.10;;;18.40;99.90;;;;;;5046187;28;20021;-42
2023/07/25 08:48:39;;;;;;;3.63;1.00;;;18.40;99.90;;;;;;5045816;28;20024;-42
2023/07/25 08:51:14;;;;;;;2.28;1.02;;;18.30;99.90;;;;;;5046104;28;20025;-42
2023/07/25 08:53:52;;;;;;;4.22;1.25;;;18.20;99.90;;;;;;5047045;28;20151;-42
2023/07/25 08:56:19;;;;;;;3.58;1.13;;;18.00;99.90;;;;;;5045961;28;20052;-41
2023/07/25 08:58:46;;;;;;;3.33;0.75;;;17.90;99.90;;;;;;5046246;28;20028;-41
2023/07/25 09:01:12;;;;;;;2.90;0.95;;;17.90;99.90;;;;;;5045439;28;20048;-41
2023/07/25 09:03:42;;;;;;;2.28;0.70;;;17.80;99.90;;;;;;5046351;28;20025;-41
2023/07/25 09:06:10;;;;;;;1.05;0.52;;;17.80;99.90;;;;;;5045731;28;20066;-41
2023/07/25 09:08:36;;;;;;;3.97;0.90;;;17.80;99.90;;;;;;5044914;28;20579;-40
2023/07/25 09:11:03;;;;;;;1.95;0.68;;;17.80;99.90;;;;;;5045839;28;20028;-42
2023/07/25 09:13:30;;;;;;;3.42;0.60;;;17.80;99.90;;;;;;5046077;28;20028;-41
2023/07/25 09:15:55;;;;;;;0.82;0.50;;;17.70;99.90;;;;;;5045525;28;20025;-41
2023/07/25 09:18:27;;;;;;;2.85;0.82;;;17.80;99.90;;;;;;5046140;28;20500;-42
2023/07/25 09:20:53;;;;;;;1.30;0.60;;;17.70;99.90;;;;;;5045739;28;20091;-42
2023/07/25 09:23:21;;;;;;;1.25;0.70;;;17.70;99.90;;;;;;5045132;28;20477;-42
2023/07/25 09:25:47;;;;;;;1.17;0.60;;;17.70;99.90;;;;;;5045489;28;20017;-41
2023/07/25 09:28:12;;;;;;;1.70;0.43;;;17.70;99.90;;;;;;5045768;28;20032;-40
2023/07/25 09:30:47;;;;;;;1.45;0.63;;;17.70;99.90;;;;;;5045031;28;20025;-41
2023/07/25 09:33:33;;;;;;;1.60;0.60;;;17.90;99.90;;;;;;5045977;28;20017;-42
2023/07/25 09:36:02;;;;;;;2.25;0.60;;;18.00;99.90;;;;;;5044691;28;20029;-42
2023/07/25 09:38:27;;;;;;;1.02;0.50;;;18.20;99.90;;;;;;5045116;28;20029;-42
2023/07/25 09:40:54;;;;;;;2.55;0.77;;;18.30;99.90;;;;;;5045743;28;20052;-42
2023/07/25 09:43:29;;;;;;;2.53;0.82;;;18.40;98.90;;;;;;5045353;28;20751;-42
2023/07/25 09:45:55;;;;;;;0.70;0.68;;;18.30;99.30;;;;;;5045072;28;20083;-42
2023/07/25 09:48:24;;;;;;;2.50;0.60;;;18.30;99.20;;;;;;5045414;28;20044;-46
2023/07/25 09:50:50;;;;;;;1.58;0.35;;;18.20;99.40;;;;;;5044928;28;20028;-42
2023/07/25 09:53:17;;;;;;;0.75;0.57;;;18.20;99.60;;;;;;5045199;28;20111;-42
2023/07/25 09:55:43;;;;;;;1.33;0.47;;;18.20;99.80;;;;;;5045086;28;20040;-42
2023/07/25 09:58:11;;;;;;;1.90;0.60;;;18.30;99.90;;;;;;5044945;28;20028;-42
2023/07/25 10:00:46;;;;;;;1.38;0.45;;;18.40;97.80;;;;;;5045099;28;20045;-42
2023/07/25 10:03:12;;;;;;;0.57;0.30;;;18.50;98.50;;;;;;5045187;28;20025;-42
2023/07/25 10:05:44;;;;;;;1.67;0.50;;;18.50;98.70;;;;;;5044483;28;20032;-42
2023/07/25 10:08:11;;;;;;;1.42;0.57;;;18.50;98.30;;;;;;5045158;28;20071;-42
2023/07/25 10:10:37;;;;;;;1.25;0.55;;;18.60;97.40;;;;;;5044676;28;20404;-42
2023/07/25 10:13:02;;;;;;;0.80;0.50;;;18.70;97.30;;;;;;5044203;28;20021;-42
2023/07/25 10:15:29;;;;;;;2.85;0.55;;;18.80;95.90;;;;;;5044972;28;20020;-42
2023/07/25 10:18:05;;;;;;;0.88;0.68;;;18.80;95.40;;;;;;5045022;28;20096;-41
2023/07/25 10:20:31;;;;;;;1.90;0.45;;;18.60;95.70;;;;;;5044285;28;20044;-41
2023/07/25 10:23:08;;;;;;;1.38;0.40;;;18.60;96.40;;;;;;5045227;28;20024;-42
2023/07/25 10:25:34;;;;;;;1.98;0.50;;;18.60;96.90;;;;;;5044767;28;20094;-43
2023/07/25 10:28:00;;;;;;;1.85;0.52;;;18.70;96.90;;;;;;5044065;28;20017;-42
2023/07/25 10:30:43;;;;;;;0.55;0.40;;;18.70;96.10;;;;;;5044921;28;20812;-42
2023/07/25 10:33:15;;;;;;;0.38;0.35;;;18.80;96.70;;;;;;5044240;28;20486;-42
2023/07/25 10:35:52;;;;;;;1.07;0.40;;;18.90;96.60;;;;;;5044600;28;20024;-42
2023/07/25 10:38:30;;;;;;;2.05;0.60;;;19.00;96.20;;;;;;5044208;28;20029;-41
2023/07/25 10:40:58;;;;;;;1.08;0.57;;;19.10;94.30;;;;;;5044848;28;20100;-41
2023/07/25 10:43:52;;;;;;;1.60;0.52;;;19.10;94.50;;;;;;5044992;28;20048;-42
2023/07/25 10:46:23;;;;;;;0.57;0.38;;;19.20;95.00;;;;;;5037338;28;20059;-41
2023/07/25 10:48:53;;;;;;;0.77;0.30;;;19.30;95.00;;;;;;5044062;28;20039;-41
2023/07/25 10:51:21;;;;;;;1.08;0.45;;;19.30;95.10;;;;;;5044555;28;20025;-41
2023/07/25 10:54:07;;;;;;;4.10;0.70;;;19.30;93.20;;;;;;5044059;28;20872;-41
2023/07/25 10:56:33;;;;;;;1.27;0.60;;;19.30;93.60;;;;;;5046987;28;20039;-41
2023/07/25 10:59:11;;;;;;;0.50;0.50;;;19.40;92.70;;;;;;5047823;28;20025;-41
2023/07/25 11:01:44;;;;;;;1.13;0.45;;;19.30;92.60;;;;;;5047995;28;20429;-42
2023/07/25 11:04:20;;;;;;;1.35;0.40;;;19.30;92.70;;;;;;5048715;28;20091;-42
2023/07/25 11:06:46;;;;;;;1.95;0.52;;;19.20;93.20;;;;;;5048114;28;20037;-42
2023/07/25 11:09:12;;;;;;;1.20;0.52;;;19.10;93.30;;;;;;5047058;28;20055;-41
2023/07/25 11:11:45;;;;;;;2.35;0.60;;;19.20;93.70;;;;;;5048259;28;20469;-42
2023/07/25 11:14:23;;;;;;;2.63;0.60;;;19.30;93.50;;;;;;5048274;28;20044;-42
2023/07/25 11:16:50;;;;;;;0.55;0.30;;;19.40;92.30;;;;;;5048043;28;20161;-42
2023/07/25 11:19:16;;;;;;;0.73;0.40;;;19.50;91.90;;;;;;5048362;28;20033;-42
2023/07/25 11:21:43;;;;;;;0.47;0.30;;;19.50;92.00;;;;;;5047738;28;20032;-42
2023/07/25 11:24:13;;;;;;;0.57;0.40;;;19.50;92.40;;;;;;5047159;28;20029;-41
2023/07/25 11:26:43;;;;;;;0.40;0.32;;;19.50;91.70;;;;;;5046789;28;20029;-42
2023/07/25 11:29:11;;;;;;;1.98;0.40;;;19.40;92.10;;;;;;5047347;28;20034;-42
2023/07/25 11:31:41;;;;;;;1.85;0.73;;;19.30;92.30;;;;;;5047627;28;20037;-42
2023/07/25 11:34:12;;;;;;;0.60;0.30;;;19.30;92.80;;;;;;5047560;28;20636;-41
2023/07/25 11:36:41;;;;;;;0.90;0.50;;;19.30;92.60;;;;;;5047305;28;20029;-41
2023/07/25 11:39:10;;;;;;;4.72;0.70;;;19.40;92.80;;;;;;5047529;28;20114;-42
2023/07/25 11:41:37;;;;;;;1.10;0.32;;;19.60;92.60;;;;;;5047664;28;20028;-42
2023/07/25 11:44:18;;;;;;;0.73;0.40;;;19.70;92.60;;;;;;5047410;28;20070;-42
2023/07/25 11:46:49;;;;;;;1.60;0.57;;;19.90;92.60;;;;;;5047421;28;20631;-42
2023/07/25 11:49:15;;;;;;;0.75;0.40;;;19.90;92.40;;;;;;5047789;28;20070;-42
2023/07/25 11:51:41;;;;;;;0.98;0.40;;;20.00;91.40;;;;;;5047054;28;20100;-42
2023/07/25 11:54:11;;;;;;;1.02;0.40;;;19.90;91.50;;;;;;5048139;28;20174;-41
2023/07/25 11:56:37;;;;;;;0.98;0.35;;;19.90;91.80;;;;;;5047273;28;20466;-41
2023/07/25 11:59:03;;;;;;;1.10;0.38;;;19.90;91.90;;;;;;5046538;28;20043;-42
2023/07/25 12:01:31;;;;;;;0.60;0.45;;;19.80;91.70;;;;;;5047461;28;20559;-42
2023/07/25 12:04:03;;;;;;;0.40;0.40;;;19.70;91.60;;;;;;5047020;28;20028;-41
2023/07/25 12:06:30;;;;;;;1.80;0.55;;;19.80;91.60;;;;;;5047330;28;20130;-42
2023/07/25 12:08:57;;;;;;;0.75;0.40;;;19.80;91.90;;;;;;5046556;28;20045;-42
2023/07/25 12:11:23;;;;;;;1.15;0.40;;;19.80;90.30;;;;;;5046527;28;20028;-42
2023/07/25 12:13:50;;;;;;;2.10;0.63;;;19.80;89.20;;;;;;5047602;28;20476;-42
2023/07/25 12:16:30;;;;;;;1.60;0.60;;;19.80;90.10;;;;;;5046598;28;20369;-42
2023/07/25 12:19:01;;;;;;;1.90;0.50;;;19.90;89.40;;;;;;5046884;28;20037;-42
2023/07/25 12:21:32;;;;;;;0.40;0.40;;;19.90;89.30;;;;;;5047895;28;20037;-42
2023/07/25 12:24:06;;;;;;;0.95;0.50;;;19.90;90.00;;;;;;5047523;28;20033;-42
2023/07/25 12:26:54;;;;;;;0.85;0.40;;;19.80;89.90;;;;;;5046250;28;20060;-42
2023/07/25 12:29:26;;;;;;;0.80;0.38;;;19.80;90.10;;;;;;5036063;28;20036;-42
2023/07/25 12:31:59;;;;;;;0.30;0.30;;;19.80;90.20;;;;;;5047038;28;20037;-45
2023/07/25 12:34:24;;;;;;;2.22;0.73;;;19.90;90.50;;;;;;5046223;28;20786;-42
2023/07/25 12:36:54;;;;;;;1.60;0.60;;;20.10;90.70;;;;;;5046441;28;20154;-42
2023/07/25 12:39:26;;;;;;;0.98;0.45;;;20.30;91.30;;;;;;5045859;28;20118;-43
2023/07/25 12:41:52;;;;;;;2.15;0.57;;;20.30;92.00;;;;;;5046386;28;20858;-43
2023/07/25 12:44:21;;;;;;;3.80;0.80;;;20.10;92.40;;;;;;5046368;28;20104;-44
2023/07/25 12:46:47;;;;;;;1.65;0.60;;;20.00;93.10;;;;;;5046303;28;20025;-42
2023/07/25 12:49:12;;;;;;;3.72;0.70;;;19.80;93.30;;;;;;5046274;28;20033;-42